Time;durP1;ratioP1;P1;durP2;ratioP2;P2;SDS_P1;SDS_P2;PMS_P1;PMS_P2;Temp;Humidity;BMP_temperature;BMP_pressure;BME280_temperature;BME280_humidity;BME280_pressure;Samples;Min_cycle;Max_cycle;Signal;HPM_P1;HPM_P2
2024/03/27 00:49:42;;;;;;;1.90;1.70;;;;;;;25.72;19.90;100021.12;107905;1265;71393;-91
2024/03/27 05:39:08;;;;;;;6.70;3.60;;;;;;;24.05;22.80;99987.48;108401;1263;68744;-85
2024/03/27 05:41:38;;;;;;;5.20;3.50;;;;;;;24.06;22.83;99984.67;108389;1262;67813;-86
2024/03/27 05:46:49;;;;;;;5.60;3.10;;;;;;;24.09;22.89;99995.10;108787;1261;68575;-87
2024/03/27 05:55:19;;;;;;;8.30;3.00;;;;;;;24.11;22.75;100001.48;108987;1259;66182;-89
2024/03/27 05:57:48;;;;;;;9.50;3.60;;;;;;;24.12;22.83;100001.92;108397;1263;82846;-89
2024/03/27 06:00:21;;;;;;;6.80;3.00;;;;;;;24.12;22.81;100003.36;108153;1268;70056;-87
2024/03/27 06:02:58;;;;;;;10.50;3.00;;;;;;;24.12;22.92;100005.20;108141;1264;69978;-86
2024/03/27 06:05:28;;;;;;;6.90;3.00;;;;;;;24.12;22.92;100005.31;108104;1263;70077;-91
2024/03/27 06:07:53;;;;;;;9.20;3.30;;;;;;;24.12;22.91;100010.55;108107;1269;68300;-86
2024/03/27 06:10:19;;;;;;;5.80;2.80;;;;;;;24.12;22.98;100009.31;108230;1266;68353;-88
2024/03/27 06:12:45;;;;;;;5.40;3.00;;;;;;;24.12;22.98;100007.31;108010;1264;68054;-86
2024/03/27 06:15:14;;;;;;;6.30;2.90;;;;;;;24.14;23.00;100011.34;108006;1262;70111;-89
2024/03/27 06:22:58;;;;;;;6.00;2.80;;;;;;;24.18;23.13;100008.75;108402;1264;75487;-88
2024/03/27 06:25:27;;;;;;;8.80;2.90;;;;;;;24.21;23.16;100006.83;108427;1262;69984;-91
2024/03/27 06:28:07;;;;;;;8.90;3.10;;;;;;;24.25;23.26;100008.45;108446;1263;67744;-87
2024/03/27 06:30:38;;;;;;;7.30;3.40;;;;;;;24.27;23.30;100007.63;108545;1263;67773;-89
2024/03/27 06:33:11;;;;;;;12.10;4.40;;;;;;;24.30;23.53;100007.52;108498;1263;75240;-90
2024/03/27 07:45:03;;;;;;;10.40;3.60;;;;;;;24.27;24.45;100029.37;109099;1262;67523;-87
2024/03/27 09:11:13;;;;;;;7.80;3.30;;;;;;;24.70;25.83;100010.30;108586;1263;66747;-91
2024/03/27 09:16:26;;;;;;;8.40;3.30;;;;;;;24.70;25.97;100008.96;108355;1270;67518;-86
2024/03/27 09:18:52;;;;;;;10.20;3.10;;;;;;;24.71;26.00;100013.27;108392;1267;68098;-90
2024/03/27 09:39:33;;;;;;;7.60;3.00;;;;;;;24.85;25.99;100008.45;108535;1264;66043;-89
2024/03/27 10:59:01;;;;;;;5.80;2.80;;;;;;;24.73;25.75;99958.27;108122;1263;69767;-89
2024/03/27 11:01:46;;;;;;;5.70;2.60;;;;;;;24.54;25.76;99953.51;107654;1264;69906;-88
2024/03/27 11:06:55;;;;;;;7.00;2.40;;;;;;;24.50;25.66;99951.80;107527;1264;69932;-85
2024/03/27 11:09:22;;;;;;;6.80;2.30;;;;;;;24.52;25.60;99946.63;107615;1265;70913;-87
2024/03/27 11:11:47;;;;;;;6.80;2.60;;;;;;;24.55;25.74;99947.10;107425;1264;68575;-89
2024/03/27 11:14:17;;;;;;;8.70;2.50;;;;;;;24.59;26.01;99948.34;107611;1265;69977;-88
2024/03/27 11:19:46;;;;;;;6.20;2.70;;;;;;;24.66;25.80;99947.02;107739;1265;69966;-87
2024/03/27 11:24:59;;;;;;;6.20;2.40;;;;;;;24.73;25.75;99939.20;107305;1266;69993;-87
2024/03/27 11:27:26;;;;;;;6.90;2.70;;;;;;;24.77;25.74;99934.76;106993;1266;70050;-87
2024/03/27 11:29:52;;;;;;;6.00;2.60;;;;;;;24.73;25.72;99933.02;106907;1269;69881;-88
2024/03/27 11:32:18;;;;;;;4.60;2.60;;;;;;;24.63;25.47;99933.34;106597;1265;69999;-84
2024/03/27 11:34:44;;;;;;;9.50;2.50;;;;;;;24.50;25.48;99932.35;106712;1266;70001;-85
2024/03/27 11:39:49;;;;;;;6.50;2.50;;;;;;;24.30;25.47;99931.42;106648;1265;69910;-86
2024/03/27 11:42:15;;;;;;;4.50;2.50;;;;;;;24.19;25.56;99937.88;106432;1271;70031;-85
2024/03/27 11:44:45;;;;;;;6.30;2.40;;;;;;;24.13;25.48;99943.25;106893;1265;70049;-90
2024/03/27 11:47:17;;;;;;;4.30;2.00;;;;;;;24.07;25.46;99938.96;106941;1265;70082;-89
2024/03/27 11:49:43;;;;;;;4.90;1.80;;;;;;;24.02;25.65;99936.20;106864;1265;68368;-85
2024/03/27 11:54:53;;;;;;;6.40;2.40;;;;;;;23.96;25.75;99940.77;107012;1267;74274;-89
2024/03/27 11:57:24;;;;;;;5.80;2.00;;;;;;;23.94;25.75;99949.14;107299;1262;69907;-89
2024/03/27 11:59:50;;;;;;;4.50;2.00;;;;;;;23.96;25.86;99946.72;107607;1263;70030;-90
2024/03/27 12:08:09;;;;;;;5.30;1.90;;;;;;;24.13;25.79;99940.95;108967;1263;73024;-89
2024/03/27 12:10:43;;;;;;;4.70;2.20;;;;;;;24.20;25.95;99937.48;108304;1263;70348;-92
2024/03/27 12:13:14;;;;;;;5.10;2.40;;;;;;;24.28;25.71;99935.84;108076;1263;68009;-92
2024/03/27 12:30:06;;;;;;;4.30;2.80;;;;;;;24.63;25.56;99927.27;108530;1262;68393;-89
2024/03/27 12:35:21;;;;;;;5.90;3.00;;;;;;;24.70;25.50;99915.70;108250;1265;72239;-89
2024/03/27 12:37:47;;;;;;;4.80;2.90;;;;;;;24.74;25.64;99919.52;107630;1264;69832;-89
2024/03/27 12:40:15;;;;;;;4.70;3.20;;;;;;;24.79;25.69;99922.36;107899;1264;70084;-92
2024/03/27 12:42:43;;;;;;;5.20;3.10;;;;;;;24.83;25.61;99914.30;108207;1264;67603;-88
2024/03/27 12:45:09;;;;;;;10.60;3.40;;;;;;;24.87;25.49;99909.34;108421;1264;67778;-86
2024/03/27 13:04:49;;;;;;;5.90;3.60;;;;;;;25.07;25.47;99914.69;108356;1264;68272;-89
2024/03/27 13:07:15;;;;;;;6.90;4.00;;;;;;;25.09;25.46;99907.99;108306;1265;69985;-89
2024/03/27 13:12:32;;;;;;;8.20;3.70;;;;;;;25.12;25.42;99901.23;108095;1263;67698;-89
2024/03/27 13:17:46;;;;;;;20.30;17.10;;;;;;;25.16;25.29;99902.67;108161;1262;553054;-90
2024/03/27 13:20:15;;;;;;;31.70;26.90;;;;;;;25.17;25.40;99894.72;108319;1262;67822;-89
2024/03/27 13:34:32;;;;;;;27.40;16.00;;;;;;;25.22;25.42;99890.06;109002;1264;67322;-87
2024/03/27 13:39:57;;;;;;;24.40;13.40;;;;;;;25.25;25.41;99892.97;108826;1262;69836;-92
2024/03/27 13:42:22;;;;;;;23.20;12.20;;;;;;;25.27;25.55;99892.48;108296;1262;74039;-85
2024/03/27 13:44:49;;;;;;;21.50;10.50;;;;;;;25.29;25.34;99893.09;107582;1262;70264;-86
2024/03/27 13:47:15;;;;;;;21.70;9.80;;;;;;;25.31;25.48;99891.94;107480;1262;68756;-87
2024/03/27 13:49:41;;;;;;;13.40;8.30;;;;;;;25.31;25.61;99882.39;107301;1262;70053;-86
2024/03/27 13:52:07;;;;;;;16.10;7.50;;;;;;;25.32;25.44;99885.30;107497;1262;70395;-85
2024/03/27 13:54:35;;;;;;;10.90;6.50;;;;;;;25.32;25.43;99892.70;107454;1262;70100;-87
2024/03/27 13:57:01;;;;;;;13.50;6.00;;;;;;;25.33;25.37;99888.66;107851;1267;68037;-86
2024/03/27 14:04:57;;;;;;;9.40;5.30;;;;;;;25.33;25.49;99896.17;108471;1263;70486;-89
2024/03/27 14:07:22;;;;;;;8.10;4.70;;;;;;;25.34;25.58;99889.52;108126;1262;67784;-87
2024/03/27 14:09:49;;;;;;;11.00;4.70;;;;;;;25.36;25.35;99878.86;108364;1263;67690;-93
2024/03/27 14:15:10;;;;;;;9.10;3.30;;;;;;;25.31;25.61;99879.40;108481;1262;68213;-88
2024/03/27 14:17:50;;;;;;;4.90;3.30;;;;;;;25.29;25.44;99876.55;107995;1264;69867;-87
2024/03/27 14:20:16;;;;;;;7.80;3.70;;;;;;;25.30;25.38;99878.71;107044;1263;69994;-83
2024/03/27 14:22:41;;;;;;;8.30;3.30;;;;;;;25.30;25.59;99872.63;107330;1262;69923;-85
2024/03/27 14:25:07;;;;;;;9.30;3.40;;;;;;;25.29;25.38;99875.83;107292;1262;70104;-84
2024/03/27 14:30:13;;;;;;;;;;;;;;;25.27;25.33;99872.21;107219;1263;74323;-85
2024/03/27 14:32:38;;;;;;;11.40;3.70;;;;;;;25.25;25.68;99870.53;107247;1262;70013;-84
2024/03/27 14:35:04;;;;;;;6.70;2.90;;;;;;;25.25;25.50;99866.65;107178;1262;68017;-85
2024/03/27 14:37:30;;;;;;;10.90;3.10;;;;;;;25.26;25.86;99866.69;107277;1262;69960;-85
2024/03/27 14:39:56;;;;;;;8.20;3.20;;;;;;;25.27;25.63;99862.80;107223;1267;70017;-85
2024/03/27 14:42:22;;;;;;;10.10;3.10;;;;;;;25.27;25.76;99861.89;106925;1268;69975;-87
2024/03/27 14:44:47;;;;;;;10.50;2.90;;;;;;;25.28;25.87;99857.27;107104;1263;70133;-84
2024/03/27 14:47:13;;;;;;;5.40;2.90;;;;;;;25.29;26.15;99859.33;107151;1265;69991;-84
2024/03/27 14:49:38;;;;;;;8.30;2.90;;;;;;;25.29;26.01;99858.09;106839;1264;69913;-85
2024/03/27 14:52:05;;;;;;;9.50;3.10;;;;;;;25.30;26.19;99857.31;107293;1262;70007;-83
2024/03/27 14:54:42;;;;;;;8.30;2.70;;;;;;;25.30;26.03;99858.33;106996;1264;67869;-90
2024/03/27 14:57:08;;;;;;;5.70;2.80;;;;;;;25.29;26.11;99856.02;107188;1262;72011;-84
2024/03/27 14:59:33;;;;;;;6.10;2.50;;;;;;;25.29;26.34;99854.73;107352;1262;70498;-86
2024/03/27 15:01:59;;;;;;;7.00;2.80;;;;;;;25.30;26.29;99857.00;107250;1264;69876;-86
2024/03/27 15:04:24;;;;;;;9.70;3.20;;;;;;;25.30;26.38;99854.63;106950;1270;70017;-85
2024/03/27 15:06:50;;;;;;;9.90;3.00;;;;;;;25.30;26.43;99856.92;107628;1264;70014;-84
2024/03/27 15:09:16;;;;;;;10.70;2.60;;;;;;;25.30;26.49;99849.83;107452;1267;69984;-87
2024/03/27 15:11:41;;;;;;;10.10;3.00;;;;;;;25.29;26.38;99848.50;107230;1264;70005;-84
2024/03/27 15:14:07;;;;;;;9.50;3.10;;;;;;;25.29;26.53;99847.17;106905;1265;70067;-84
2024/03/27 15:16:33;;;;;;;11.10;3.10;;;;;;;25.29;26.56;99846.72;106847;1264;70177;-87
2024/03/27 15:18:59;;;;;;;6.70;2.90;;;;;;;25.29;26.48;99851.70;106989;1264;69899;-87
2024/03/27 15:21:33;;;;;;;8.60;3.10;;;;;;;25.29;26.56;99851.41;107477;1264;69950;-91
2024/03/27 15:23:59;;;;;;;12.00;2.90;;;;;;;25.28;26.70;99852.76;107445;1263;70001;-86
2024/03/27 15:26:24;;;;;;;16.80;3.20;;;;;;;25.27;26.77;99845.17;107128;1265;69927;-85
2024/03/27 15:28:50;;;;;;;11.80;2.80;;;;;;;25.27;26.65;99838.19;107079;1264;69973;-85
2024/03/27 15:31:16;;;;;;;8.60;2.80;;;;;;;25.26;26.86;99833.16;107020;1264;70353;-86
2024/03/27 15:33:41;;;;;;;11.50;2.80;;;;;;;25.26;26.91;99839.09;107255;1264;69842;-88
2024/03/27 15:36:07;;;;;;;8.30;2.40;;;;;;;25.26;26.73;99845.17;107250;1264;69915;-87
2024/03/27 15:38:33;;;;;;;12.70;2.40;;;;;;;25.25;26.61;99842.26;107139;1264;69997;-86
2024/03/27 15:40:59;;;;;;;10.80;2.50;;;;;;;25.25;26.61;99842.52;107298;1267;70016;-84
2024/03/27 15:43:25;;;;;;;15.10;2.70;;;;;;;25.24;26.79;99846.98;107135;1264;70011;-86
2024/03/27 15:45:52;;;;;;;11.60;2.70;;;;;;;25.24;26.68;99849.61;107265;1264;69988;-87
2024/03/27 15:50:55;;;;;;;7.40;2.50;;;;;;;25.23;26.81;99850.86;107234;1264;69939;-87
2024/03/27 15:53:21;;;;;;;17.20;2.70;;;;;;;25.23;26.62;99849.86;107262;1264;68650;-87
2024/03/27 15:55:46;;;;;;;21.00;3.30;;;;;;;25.23;26.87;99852.40;107151;1264;70498;-86
2024/03/27 15:58:12;;;;;;;22.10;3.30;;;;;;;25.23;26.60;99855.27;107094;1264;70037;-86
2024/03/27 16:00:38;;;;;;;24.40;3.70;;;;;;;25.23;26.79;99857.20;107019;1267;70000;-85
2024/03/27 16:03:03;;;;;;;28.20;3.60;;;;;;;25.22;26.98;99856.73;106708;1264;70331;-85
2024/03/27 16:05:29;;;;;;;28.00;3.70;;;;;;;25.21;27.08;99858.36;106975;1264;70169;-85
2024/03/27 16:07:54;;;;;;;16.40;3.50;;;;;;;25.21;26.99;99863.87;106995;1264;69899;-85
2024/03/27 16:10:20;;;;;;;22.50;3.50;;;;;;;25.20;26.99;99868.42;107084;1264;70132;-86
2024/03/27 16:12:46;;;;;;;20.20;2.90;;;;;;;25.20;27.25;99867.67;107055;1264;71125;-86
2024/03/27 16:17:51;;;;;;;9.80;2.80;;;;;;;25.16;27.21;99865.87;107791;1268;69777;-86
2024/03/27 16:20:16;;;;;;;8.80;2.80;;;;;;;25.15;27.12;99865.07;107429;1262;69944;-86
2024/03/27 16:22:42;;;;;;;14.30;2.60;;;;;;;25.14;27.30;99865.22;107149;1266;70004;-86
2024/03/27 16:25:08;;;;;;;8.60;2.90;;;;;;;25.13;27.27;99861.02;107428;1266;69970;-86
2024/03/27 16:27:33;;;;;;;8.00;2.60;;;;;;;25.11;27.19;99861.83;107312;1264;69959;-86
2024/03/27 16:29:59;;;;;;;7.80;2.60;;;;;;;25.10;27.28;99858.06;107019;1268;69909;-86
2024/03/27 16:32:25;;;;;;;5.70;2.60;;;;;;;25.09;27.47;99858.98;107224;1266;69956;-87
2024/03/27 16:34:50;;;;;;;6.50;2.90;;;;;;;25.08;27.49;99859.02;107127;1267;70000;-86
2024/03/27 16:37:16;;;;;;;6.40;2.70;;;;;;;25.07;27.37;99855.23;107179;1264;70037;-86
2024/03/27 16:39:42;;;;;;;7.10;2.70;;;;;;;25.06;27.57;99853.61;107107;1268;69997;-86
2024/03/27 16:42:16;;;;;;;6.60;2.90;;;;;;;25.06;27.54;99849.91;106976;1268;71165;-92
2024/03/27 16:44:41;;;;;;;9.70;3.20;;;;;;;25.06;27.54;99851.09;107012;1264;68707;-86
2024/03/27 16:47:07;;;;;;;11.30;3.20;;;;;;;25.07;27.60;99848.86;107288;1266;67925;-87
2024/03/27 16:49:32;;;;;;;13.90;3.20;;;;;;;25.08;27.53;99848.22;107073;1262;70122;-86
2024/03/27 16:51:58;;;;;;;5.80;2.80;;;;;;;25.08;27.74;99845.28;107123;1266;69972;-86
2024/03/27 16:54:23;;;;;;;8.70;2.90;;;;;;;25.08;27.87;99843.44;107237;1269;70001;-87
2024/03/27 16:56:49;;;;;;;6.60;3.30;;;;;;;25.09;27.92;99842.52;106996;1263;70008;-86
2024/03/27 16:59:15;;;;;;;9.60;3.10;;;;;;;25.09;27.72;99837.17;107136;1263;69940;-86
2024/03/27 17:01:41;;;;;;;8.00;2.80;;;;;;;25.09;27.86;99834.09;107138;1264;70112;-87
2024/03/27 17:04:07;;;;;;;7.20;3.00;;;;;;;25.10;27.87;99836.23;107274;1262;69940;-87
2024/03/27 17:06:32;;;;;;;5.20;2.70;;;;;;;25.10;27.78;99840.50;107357;1266;69956;-88
2024/03/27 17:11:41;;;;;;;7.30;3.10;;;;;;;25.10;27.90;99848.16;107285;1264;70000;-86
2024/03/27 17:14:07;;;;;;;9.50;3.40;;;;;;;25.10;28.05;99845.90;107270;1264;69950;-86
2024/03/27 17:16:32;;;;;;;11.00;3.30;;;;;;;25.11;27.92;99846.81;107255;1264;69901;-86
2024/03/27 17:18:58;;;;;;;11.90;3.20;;;;;;;25.11;28.00;99843.71;107282;1265;70053;-86
2024/03/27 17:21:24;;;;;;;9.70;3.50;;;;;;;25.11;27.94;99839.44;107327;1268;70617;-86
2024/03/27 17:23:49;;;;;;;9.40;3.50;;;;;;;25.11;28.08;99840.33;107300;1264;69870;-87
2024/03/27 17:26:18;;;;;;;7.90;3.60;;;;;;;25.11;28.00;99835.90;107146;1265;70061;-87
2024/03/27 17:28:44;;;;;;;11.40;4.00;;;;;;;25.11;28.02;99835.33;107224;1265;74000;-86
2024/03/27 17:31:12;;;;;;;7.10;3.70;;;;;;;25.11;28.23;99837.07;107036;1266;69788;-85
2024/03/27 17:33:38;;;;;;;10.20;3.90;;;;;;;25.11;28.04;99835.27;107020;1263;69974;-86
2024/03/27 17:36:04;;;;;;;6.10;3.60;;;;;;;25.11;28.14;99833.71;107078;1264;70040;-92
2024/03/27 17:38:29;;;;;;;7.10;3.60;;;;;;;25.12;28.15;99835.41;106922;1264;70058;-85
2024/03/27 17:40:55;;;;;;;6.60;3.80;;;;;;;25.11;28.08;99831.87;106849;1266;69990;-86
2024/03/27 17:43:21;;;;;;;8.50;3.70;;;;;;;25.11;28.19;99829.56;106966;1264;70081;-86
2024/03/27 17:45:46;;;;;;;8.50;3.90;;;;;;;25.11;28.14;99829.55;107165;1264;69909;-85
2024/03/27 17:48:12;;;;;;;6.80;4.20;;;;;;;25.11;28.15;99832.85;106925;1264;69991;-85
2024/03/27 17:50:38;;;;;;;8.70;4.20;;;;;;;25.11;28.31;99827.45;106918;1264;70116;-85
2024/03/27 17:53:03;;;;;;;8.90;4.10;;;;;;;25.11;28.21;99829.98;107112;1264;70013;-86
2024/03/27 17:55:35;;;;;;;7.00;3.90;;;;;;;25.11;28.17;99830.80;107263;1264;70554;-86
2024/03/27 17:58:02;;;;;;;10.40;4.30;;;;;;;25.11;28.29;99834.96;107182;1268;69870;-85
2024/03/27 18:00:28;;;;;;;7.90;4.90;;;;;;;25.11;28.38;99833.83;107086;1264;69768;-86
2024/03/27 18:03:02;;;;;;;10.20;5.00;;;;;;;25.11;28.42;99835.94;107036;1265;69994;-90
2024/03/27 18:05:27;;;;;;;8.80;4.60;;;;;;;25.11;28.46;99833.98;106888;1268;69815;-86
2024/03/27 18:07:53;;;;;;;11.20;4.80;;;;;;;25.11;28.53;99836.23;107202;1264;69994;-86
2024/03/27 18:10:18;;;;;;;12.50;5.20;;;;;;;25.11;28.47;99835.23;106981;1264;67685;-86
2024/03/27 18:12:44;;;;;;;11.40;5.70;;;;;;;25.11;28.45;99834.14;106988;1268;70934;-86
2024/03/27 18:15:09;;;;;;;7.80;4.50;;;;;;;25.10;28.64;99831.73;106890;1268;69898;-86
2024/03/27 18:17:35;;;;;;;12.10;4.50;;;;;;;25.10;28.65;99831.48;106862;1272;70071;-86
2024/03/27 18:20:01;;;;;;;8.90;4.50;;;;;;;25.10;28.69;99831.85;106919;1265;69944;-85
2024/03/27 18:22:27;;;;;;;8.60;4.80;;;;;;;25.10;28.72;99830.20;107070;1266;69929;-85
2024/03/27 18:24:52;;;;;;;8.00;4.40;;;;;;;25.11;28.58;99825.23;107003;1265;70027;-85
2024/03/27 18:27:18;;;;;;;9.50;4.60;;;;;;;25.13;28.71;99823.23;106800;1265;68707;-85
2024/03/27 18:32:24;;;;;;;;;;;;;;;25.15;28.69;99828.11;107010;1266;74309;-86
2024/03/27 18:34:49;;;;;;;8.60;4.50;;;;;;;25.13;28.78;99821.32;106957;1265;69948;-86
2024/03/27 18:37:15;;;;;;;9.70;4.40;;;;;;;25.16;28.50;99813.92;107054;1264;67768;-86
2024/03/27 18:39:40;;;;;;;9.70;4.80;;;;;;;25.17;28.63;99808.39;107170;1265;70085;-86
2024/03/27 18:42:06;;;;;;;8.00;4.40;;;;;;;25.18;28.42;99811.33;107031;1267;70029;-87
2024/03/27 18:44:33;;;;;;;7.70;4.50;;;;;;;25.20;28.73;99812.58;107014;1264;70485;-86
2024/03/27 18:46:59;;;;;;;7.00;4.50;;;;;;;25.20;28.60;99809.42;106954;1264;70048;-86
2024/03/27 18:49:24;;;;;;;8.00;4.70;;;;;;;25.22;28.52;99796.98;107081;1264;70022;-86
2024/03/27 18:51:50;;;;;;;6.50;4.30;;;;;;;25.23;28.39;99801.13;107026;1264;70027;-86
2024/03/27 18:54:15;;;;;;;8.10;4.60;;;;;;;25.24;28.39;99806.35;106988;1264;68565;-86
2024/03/27 18:56:50;;;;;;;6.90;4.30;;;;;;;25.25;28.38;99811.14;106968;1265;70139;-92
2024/03/27 18:59:15;;;;;;;7.00;4.40;;;;;;;25.25;28.43;99807.74;106817;1265;69957;-86
2024/03/27 19:01:41;;;;;;;7.80;4.30;;;;;;;25.27;28.25;99808.23;106973;1265;70017;-86
2024/03/27 19:04:06;;;;;;;7.80;4.70;;;;;;;25.27;28.28;99804.81;106809;1264;70071;-86
2024/03/27 19:06:32;;;;;;;9.40;4.90;;;;;;;25.29;28.35;99809.92;106775;1266;69964;-86
2024/03/27 19:09:00;;;;;;;10.80;4.80;;;;;;;25.28;28.42;99803.06;106937;1268;69911;-86
2024/03/27 19:11:26;;;;;;;6.70;4.30;;;;;;;25.29;28.57;99807.38;106887;1264;69889;-86
2024/03/27 19:13:51;;;;;;;9.10;4.50;;;;;;;25.30;28.46;99807.80;106998;1265;70024;-87
2024/03/27 19:16:17;;;;;;;10.40;4.70;;;;;;;25.30;28.35;99809.39;106885;1266;68060;-86
2024/03/27 19:18:46;;;;;;;8.20;4.60;;;;;;;25.31;28.16;99808.19;106723;1268;361073;-87
2024/03/27 19:21:12;;;;;;;9.90;4.80;;;;;;;25.31;28.38;99810.77;106994;1265;70019;-86
2024/03/27 19:23:37;;;;;;;9.20;4.70;;;;;;;25.31;28.47;99812.45;106803;1265;69946;-86
2024/03/27 19:26:03;;;;;;;7.80;4.50;;;;;;;25.32;28.31;99807.17;106713;1266;70411;-84
2024/03/27 19:28:31;;;;;;;9.40;4.90;;;;;;;25.33;28.28;99803.41;107137;1265;70033;-85
2024/03/27 19:30:56;;;;;;;10.60;4.60;;;;;;;25.34;28.51;99794.54;107157;1265;68106;-85
2024/03/27 19:33:25;;;;;;;9.20;4.50;;;;;;;25.34;28.35;99792.15;107000;1269;70062;-85
2024/03/27 19:35:52;;;;;;;10.10;4.60;;;;;;;25.34;28.34;99788.23;107108;1269;70015;-85
2024/03/27 19:38:17;;;;;;;9.70;4.30;;;;;;;25.35;28.16;99784.19;107019;1266;70059;-85
2024/03/27 19:40:55;;;;;;;7.20;4.70;;;;;;;25.36;27.88;99776.64;107023;1265;70015;-85
2024/03/27 19:43:21;;;;;;;7.40;4.30;;;;;;;25.36;28.24;99775.92;107088;1265;70034;-86
2024/03/27 19:45:47;;;;;;;8.40;4.50;;;;;;;25.36;28.04;99777.81;106789;1270;70080;-86
2024/03/27 19:48:14;;;;;;;9.30;4.70;;;;;;;25.37;28.02;99777.29;106873;1266;70080;-86
2024/03/27 19:50:39;;;;;;;7.10;4.60;;;;;;;25.37;28.05;99779.40;106786;1265;69972;-87
2024/03/27 19:53:05;;;;;;;9.30;5.00;;;;;;;25.38;27.93;99778.80;106934;1265;70007;-87
2024/03/27 19:55:30;;;;;;;6.20;4.20;;;;;;;25.38;28.10;99779.80;106737;1266;70039;-86
2024/03/27 19:57:59;;;;;;;8.20;4.60;;;;;;;25.39;27.99;99781.11;106919;1268;70034;-87
2024/03/27 20:00:25;;;;;;;8.50;4.40;;;;;;;25.39;27.84;99788.63;106917;1265;75060;-87
2024/03/27 20:02:50;;;;;;;8.20;4.30;;;;;;;25.39;27.75;99788.09;106912;1265;69896;-87
2024/03/27 20:05:16;;;;;;;12.30;5.00;;;;;;;25.39;27.93;99789.23;106896;1264;71089;-86
2024/03/27 20:07:41;;;;;;;7.20;4.70;;;;;;;25.39;27.90;99790.81;106746;1265;69994;-87
2024/03/27 20:10:10;;;;;;;8.80;4.30;;;;;;;25.39;28.04;99786.86;107147;1266;70463;-86
2024/03/27 20:12:36;;;;;;;8.80;4.70;;;;;;;25.40;27.96;99781.53;107123;1270;69865;-87
2024/03/27 20:15:01;;;;;;;6.70;4.20;;;;;;;25.40;27.82;99778.17;107049;1265;70140;-85
2024/03/27 20:17:31;;;;;;;7.70;4.40;;;;;;;25.41;27.90;99771.83;106793;1264;70055;-93
2024/03/27 20:19:57;;;;;;;8.80;4.60;;;;;;;25.40;28.06;99770.49;106751;1268;69885;-87
2024/03/27 20:22:22;;;;;;;8.70;4.30;;;;;;;25.42;27.95;99772.92;106617;1270;68337;-86
2024/03/27 20:24:48;;;;;;;10.30;4.30;;;;;;;25.42;27.80;99771.65;106695;1265;68467;-87
2024/03/27 20:27:13;;;;;;;6.70;4.50;;;;;;;25.42;27.79;99771.12;106815;1266;70012;-87
2024/03/27 20:29:39;;;;;;;6.70;4.10;;;;;;;25.42;27.81;99770.40;106888;1266;70132;-87
2024/03/27 20:32:05;;;;;;;9.40;4.70;;;;;;;25.42;27.79;99775.09;106569;1265;70070;-87
2024/03/27 20:34:30;;;;;;;7.90;4.30;;;;;;;25.42;27.69;99768.96;106580;1264;69989;-86
2024/03/27 20:36:56;;;;;;;8.50;4.50;;;;;;;25.42;27.62;99766.85;106741;1266;68197;-87
2024/03/27 20:39:22;;;;;;;6.80;4.30;;;;;;;25.42;27.60;99769.58;106920;1265;69985;-87
2024/03/27 20:41:47;;;;;;;7.00;4.30;;;;;;;25.43;27.75;99769.77;106934;1265;70092;-87
2024/03/27 20:44:30;;;;;;;8.40;4.60;;;;;;;25.42;27.52;99767.30;106518;1271;70115;-93
2024/03/27 20:46:55;;;;;;;10.60;4.60;;;;;;;25.42;27.75;99764.44;106718;1270;69900;-87
2024/03/27 20:49:21;;;;;;;8.80;4.40;;;;;;;25.42;27.68;99760.81;106897;1266;70268;-86
2024/03/27 20:51:46;;;;;;;6.60;4.00;;;;;;;25.42;27.60;99764.94;106882;1265;69947;-86
2024/03/27 20:54:12;;;;;;;8.10;3.90;;;;;;;25.43;27.58;99761.59;106672;1265;70468;-87
2024/03/27 20:56:37;;;;;;;7.00;4.30;;;;;;;25.43;27.66;99762.42;107035;1268;69943;-85
2024/03/27 20:59:03;;;;;;;10.80;4.60;;;;;;;25.42;27.66;99760.98;106769;1270;69925;-85
2024/03/27 21:01:28;;;;;;;5.50;4.10;;;;;;;25.43;27.73;99766.83;106866;1271;69973;-85
2024/03/27 21:03:57;;;;;;;8.10;4.30;;;;;;;25.43;27.68;99767.35;107156;1268;70005;-86
2024/03/27 21:06:22;;;;;;;8.10;4.60;;;;;;;25.42;27.64;99769.88;106984;1265;69964;-86
2024/03/27 21:08:48;;;;;;;8.60;4.40;;;;;;;25.43;27.68;99767.65;107005;1265;69528;-86
2024/03/27 21:11:21;;;;;;;7.20;4.10;;;;;;;25.43;27.59;99762.29;107052;1264;70034;-91
2024/03/27 21:13:48;;;;;;;6.10;4.10;;;;;;;25.43;27.53;99765.84;106972;1266;69925;-85
2024/03/27 21:16:14;;;;;;;8.00;4.50;;;;;;;25.44;27.52;99761.10;107114;1265;82857;-86
2024/03/27 21:18:39;;;;;;;6.10;4.40;;;;;;;25.44;27.58;99759.41;106894;1266;70058;-85
2024/03/27 21:21:05;;;;;;;8.10;4.20;;;;;;;25.44;27.51;99752.87;106752;1265;70076;-86
2024/03/27 21:23:30;;;;;;;7.70;4.50;;;;;;;25.44;27.42;99752.34;106794;1264;70034;-86
2024/03/27 21:25:56;;;;;;;8.30;4.50;;;;;;;25.44;27.41;99747.24;106937;1266;69940;-86
2024/03/27 21:28:23;;;;;;;9.40;4.70;;;;;;;25.43;27.31;99738.70;107042;1265;70074;-86
2024/03/27 21:30:55;;;;;;;6.90;4.60;;;;;;;25.44;27.46;99735.16;106847;1265;69908;-86
2024/03/27 21:33:21;;;;;;;8.70;4.40;;;;;;;25.43;27.51;99728.92;106864;1266;70116;-85
2024/03/27 21:35:46;;;;;;;7.40;4.30;;;;;;;25.43;27.22;99726.66;106915;1264;68786;-86
2024/03/27 21:38:12;;;;;;;6.90;4.50;;;;;;;25.44;27.33;99727.67;106754;1265;69945;-90
2024/03/27 21:40:37;;;;;;;10.20;4.70;;;;;;;25.43;27.20;99730.20;107008;1268;70029;-85
2024/03/27 21:43:03;;;;;;;9.60;5.20;;;;;;;25.44;27.15;99734.52;106796;1266;70135;-85
2024/03/27 21:45:28;;;;;;;10.50;4.40;;;;;;;25.43;27.19;99730.05;106802;1265;70217;-86
2024/03/27 21:47:54;;;;;;;11.20;4.60;;;;;;;25.44;27.33;99723.41;107047;1266;70084;-85
2024/03/27 21:50:19;;;;;;;8.50;4.60;;;;;;;25.43;27.05;99731.59;106752;1266;70038;-85
2024/03/27 21:52:45;;;;;;;7.90;4.50;;;;;;;25.43;27.16;99727.38;106916;1265;70095;-86
2024/03/27 21:55:10;;;;;;;9.60;4.40;;;;;;;25.43;27.19;99717.13;106922;1266;69967;-86
2024/03/27 21:57:36;;;;;;;7.30;4.30;;;;;;;25.43;27.11;99715.70;106878;1268;69880;-86
2024/03/27 22:00:05;;;;;;;9.10;4.20;;;;;;;25.43;26.90;99715.80;106761;1265;69911;-86
2024/03/27 22:02:33;;;;;;;8.60;4.40;;;;;;;25.43;27.06;99711.44;106899;1265;69951;-86
2024/03/27 22:05:08;;;;;;;7.80;4.50;;;;;;;25.42;27.01;99708.81;106883;1264;69992;-92
2024/03/27 22:07:33;;;;;;;5.70;4.20;;;;;;;25.42;26.94;99706.20;106866;1265;71079;-86
2024/03/27 22:09:59;;;;;;;7.80;4.40;;;;;;;25.41;26.96;99704.91;106771;1271;70149;-86
2024/03/27 22:12:24;;;;;;;8.30;4.40;;;;;;;25.41;26.67;99704.91;106811;1265;70084;-86
2024/03/27 22:14:50;;;;;;;7.60;4.40;;;;;;;25.41;26.71;99699.20;107004;1268;69984;-86
2024/03/27 22:17:15;;;;;;;5.70;3.90;;;;;;;25.41;26.95;99695.69;106827;1264;69888;-86
2024/03/27 22:19:41;;;;;;;10.60;4.60;;;;;;;25.41;26.60;99691.12;106860;1268;70029;-86
2024/03/27 22:22:06;;;;;;;8.00;4.60;;;;;;;25.41;26.85;99685.02;106783;1266;70095;-86
2024/03/27 22:24:33;;;;;;;7.70;4.40;;;;;;;25.40;26.82;99682.59;106839;1266;70059;-85
2024/03/27 22:26:58;;;;;;;8.30;3.90;;;;;;;25.40;26.72;99682.70;106746;1270;70082;-85
2024/03/27 22:29:24;;;;;;;10.30;4.10;;;;;;;25.40;26.58;99692.48;106891;1266;70494;-86
2024/03/27 22:34:30;;;;;;;;;;;;;;;25.39;26.51;99689.08;107117;1265;69965;-86
2024/03/27 22:36:55;;;;;;;6.70;3.80;;;;;;;25.36;26.71;99674.73;107079;1264;70026;-86
2024/03/27 22:39:21;;;;;;;6.90;4.00;;;;;;;25.37;26.60;99669.45;107111;1265;69925;-85
2024/03/27 22:41:46;;;;;;;5.50;3.70;;;;;;;25.37;26.53;99674.36;106903;1271;70024;-85
2024/03/27 22:44:12;;;;;;;7.20;3.90;;;;;;;25.38;26.25;99681.90;106702;1266;70285;-85
2024/03/27 22:46:38;;;;;;;6.50;3.60;;;;;;;25.38;26.52;99684.33;106854;1264;69915;-85
2024/03/27 22:49:03;;;;;;;6.80;4.00;;;;;;;25.38;26.37;99687.46;107001;1265;70014;-86
2024/03/27 22:51:29;;;;;;;6.60;3.50;;;;;;;25.39;26.41;99692.34;106984;1264;70037;-86
2024/03/27 22:53:54;;;;;;;5.40;3.10;;;;;;;25.38;26.30;99692.40;106886;1268;70037;-85
2024/03/27 22:56:20;;;;;;;6.10;3.30;;;;;;;25.38;26.26;99684.92;106944;1265;70116;-85
2024/03/27 23:01:26;;;;;;;8.10;3.90;;;;;;;25.38;26.26;99672.17;107123;1264;74242;-85
2024/03/27 23:03:51;;;;;;;6.00;3.80;;;;;;;25.39;26.16;99672.91;106969;1264;69921;-85